createdAt,value
2022-08-17T00:01:26.265Z,89.48
2022-08-17T00:06:31.608Z,89.87
2022-08-17T00:11:38.797Z,90.75
2022-08-17T00:16:57.314Z,91.57
2022-08-17T00:22:31.323Z,92.76
2022-08-17T00:27:26.223Z,93.79
2022-08-17T00:33:12.321Z,94.30
2022-08-17T00:37:52.086Z,94.82
2022-08-17T00:42:54.783Z,95.30
2022-08-17T00:47:57.476Z,95.52
2022-08-17T00:53:00.302Z,95.91
2022-08-17T01:04:46.276Z,96.13
2022-08-17T01:09:51.367Z,96.16
2022-08-17T01:14:54.035Z,96.62
2022-08-17T01:19:56.871Z,96.70
2022-08-17T01:25:02.130Z,96.89
2022-08-17T01:30:56.731Z,97.22
2022-08-17T01:35:32.356Z,97.17
2022-08-17T01:40:43.238Z,97.24
2022-08-17T01:45:49.190Z,97.43
2022-08-17T01:51:07.599Z,97.30
2022-08-17T01:56:14.488Z,97.39
2022-08-17T02:01:19.976Z,97.74
2022-08-17T02:06:27.525Z,97.88
2022-08-17T02:11:33.995Z,98.04
2022-08-17T02:16:40.333Z,97.84
2022-08-17T02:21:46.320Z,97.78
2022-08-17T02:26:49.085Z,97.86
2022-08-17T02:31:51.766Z,97.76
2022-08-17T02:36:54.947Z,98.15
2022-08-17T02:42:02.311Z,98.29
2022-08-17T02:47:05.282Z,98.51
2022-08-17T02:52:08.180Z,98.42
2022-08-17T02:57:11.219Z,98.44
2022-08-17T03:02:13.921Z,98.35
2022-08-17T03:07:16.779Z,98.86
2022-08-17T03:12:19.508Z,98.78
2022-08-17T03:17:22.310Z,98.76
2022-08-17T03:22:36.623Z,98.53
2022-08-17T03:27:42.053Z,98.42
2022-08-17T03:32:48.922Z,98.43
2022-08-17T03:37:56.932Z,98.76
2022-08-17T03:43:09.210Z,99.13
2022-08-17T03:48:30.876Z,99.29
2022-08-17T03:53:52.577Z,99.16
2022-08-17T03:58:55.259Z,98.97
2022-08-17T04:03:57.941Z,99.48
2022-08-17T04:09:00.670Z,99.95
2022-08-17T04:14:05.036Z,99.98
2022-08-17T04:19:07.776Z,99.99
2022-08-17T04:24:10.472Z,100.00
2022-08-17T04:29:13.183Z,100.00
2022-08-17T04:34:19.666Z,100.00
2022-08-17T04:39:25.132Z,100.00
2022-08-17T04:44:37.535Z,100.00
2022-08-17T04:49:40.943Z,99.97
2022-08-17T04:54:43.686Z,99.96
2022-08-17T04:59:46.416Z,100.00
2022-08-17T05:04:50.054Z,99.54
2022-08-17T05:09:52.804Z,98.93
2022-08-17T05:14:55.488Z,98.40
2022-08-17T05:19:58.145Z,98.20
2022-08-17T05:25:01.901Z,97.53
2022-08-17T05:30:06.546Z,97.44
2022-08-17T05:35:09.578Z,96.37
2022-08-17T05:40:13.146Z,95.94
2022-08-17T05:45:23.636Z,95.36
2022-08-17T05:51:05.260Z,94.25
2022-08-17T05:56:30.156Z,93.51
2022-08-17T06:02:03.056Z,91.93
2022-08-17T06:07:25.843Z,90.51
2022-08-17T06:12:31.302Z,89.25
2022-08-17T06:17:35.657Z,89.21
2022-08-17T06:22:46.166Z,88.14
2022-08-17T06:28:14.753Z,87.37
2022-08-17T06:33:22.731Z,85.37
2022-08-17T06:38:53.354Z,85.28
2022-08-17T06:44:43.336Z,84.46
2022-08-17T06:49:55.249Z,83.70
2022-08-17T06:55:20.266Z,83.62
2022-08-17T07:00:28.409Z,81.46
2022-08-17T07:05:38.768Z,81.80
2022-08-17T07:10:51.218Z,81.94
2022-08-17T07:16:17.542Z,81.67
2022-08-17T07:21:47.177Z,81.93
2022-08-17T07:27:23.586Z,81.66
2022-08-17T07:32:37.021Z,80.58
2022-08-17T07:37:53.298Z,80.37
2022-08-17T07:43:05.797Z,79.75
2022-08-17T07:48:21.464Z,79.39
2022-08-17T07:53:26.262Z,77.91
2022-08-17T07:58:28.970Z,77.69
2022-08-17T08:03:34.090Z,76.56
2022-08-17T08:08:50.599Z,75.99
2022-08-17T08:13:53.378Z,74.90
2022-08-17T08:19:02.950Z,74.88
2022-08-17T08:24:24.248Z,75.28
2022-08-17T08:30:04.941Z,73.74
2022-08-17T08:35:17.533Z,73.15
2022-08-17T08:40:32.314Z,72.19
2022-08-17T08:45:53.174Z,69.88
2022-08-17T08:51:21.855Z,68.09
2022-08-17T08:56:35.475Z,67.78
2022-08-17T09:02:11.743Z,67.44
2022-08-17T09:07:57.274Z,66.93
2022-08-17T09:13:10.980Z,64.92
2022-08-17T09:19:01.090Z,65.24
2022-08-17T09:24:13.138Z,64.66
2022-08-17T09:29:17.854Z,64.70
2022-08-17T09:34:33.334Z,63.65
2022-08-17T09:39:50.379Z,63.39
2022-08-17T09:45:22.009Z,61.70
2022-08-17T09:50:55.375Z,59.82
2022-08-17T09:56:09.527Z,58.77
2022-08-17T10:01:48.229Z,57.74
2022-08-17T10:07:19.224Z,55.49
2022-08-17T10:12:47.004Z,53.80
2022-08-17T10:18:31.894Z,54.69
2022-08-17T10:23:54.773Z,54.40
2022-08-17T10:28:58.346Z,53.58
2022-08-17T10:34:19.443Z,53.35
2022-08-17T10:39:50.566Z,53.40
2022-08-17T10:45:05.692Z,52.60
2022-08-17T10:50:46.440Z,53.04
2022-08-17T10:56:22.665Z,52.23
2022-08-17T11:01:58.088Z,52.99
2022-08-17T11:07:19.286Z,52.63
2022-08-17T11:12:36.883Z,51.83
2022-08-17T11:18:05.713Z,50.80
2022-08-17T11:23:14.728Z,48.83
2022-08-17T11:28:24.256Z,48.37
2022-08-17T11:33:29.453Z,47.16
2022-08-17T11:38:42.069Z,46.87
2022-08-17T11:44:10.603Z,47.63
2022-08-17T11:49:44.007Z,48.51
2022-08-17T11:54:48.638Z,49.17
2022-08-17T11:59:55.693Z,47.87
2022-08-17T12:05:27.301Z,46.65
2022-08-17T12:10:34.327Z,46.94
2022-08-17T12:15:49.303Z,47.66
2022-08-17T12:21:13.509Z,47.85
2022-08-17T12:26:27.211Z,47.80
2022-08-17T12:31:51.919Z,47.63
2022-08-17T12:37:04.959Z,46.45
2022-08-17T12:42:23.946Z,45.80
2022-08-17T12:47:30.059Z,44.44
2022-08-17T12:52:39.953Z,43.73
2022-08-17T12:57:47.573Z,42.27
2022-08-17T13:03:15.763Z,42.35
2022-08-17T13:08:23.569Z,43.27
2022-08-17T13:13:34.988Z,43.89
2022-08-17T13:18:40.666Z,44.30
2022-08-17T13:24:05.779Z,44.47
2022-08-17T13:29:19.413Z,44.69
2022-08-17T13:34:28.002Z,43.82
2022-08-17T13:39:41.398Z,43.16
2022-08-17T13:44:44.550Z,42.50
2022-08-17T13:49:49.437Z,42.15
2022-08-17T13:54:52.663Z,40.34
2022-08-17T14:00:15.937Z,39.52
2022-08-17T14:05:18.735Z,40.66
2022-08-17T14:10:21.828Z,41.54
2022-08-17T14:15:55.832Z,42.91
2022-08-17T14:20:48.754Z,43.31
2022-08-17T14:25:51.470Z,43.32
2022-08-17T14:30:54.407Z,42.49
2022-08-17T14:35:57.719Z,40.23
2022-08-17T14:41:00.440Z,37.67
2022-08-17T14:46:03.146Z,35.78
2022-08-17T14:51:06.536Z,34.16
2022-08-17T14:56:09.231Z,34.25
2022-08-17T15:01:13.723Z,35.07
2022-08-17T15:06:17.020Z,35.36
2022-08-17T15:11:19.806Z,34.88
2022-08-17T15:16:22.776Z,34.42
2022-08-17T15:21:25.797Z,33.89
2022-08-17T15:26:28.666Z,34.85
2022-08-17T15:31:32.139Z,35.51
2022-08-17T15:36:35.871Z,36.71
2022-08-17T15:41:38.639Z,37.65
2022-08-17T15:46:41.504Z,38.09
2022-08-17T15:51:44.346Z,38.12
2022-08-17T15:56:47.200Z,37.72
2022-08-17T16:03:14.515Z,35.38
2022-08-17T16:07:14.517Z,32.61
2022-08-17T16:12:20.737Z,31.33
2022-08-17T16:17:38.866Z,30.23
2022-08-17T16:22:46.931Z,31.99
2022-08-17T16:27:54.565Z,33.62
2022-08-17T16:33:00.436Z,35.53
2022-08-17T16:38:03.501Z,37.01
2022-08-17T16:43:10.693Z,38.66
2022-08-17T16:48:15.453Z,39.77
2022-08-17T16:53:19.661Z,40.90
2022-08-17T16:58:22.719Z,42.08
2022-08-17T17:03:27.765Z,43.34
2022-08-17T17:08:49.163Z,44.72
2022-08-17T17:13:58.534Z,45.89
2022-08-17T17:19:12.501Z,46.91
2022-08-17T17:24:50.090Z,47.79
2022-08-17T17:30:13.251Z,48.43
2022-08-17T17:35:25.304Z,49.19
2022-08-17T17:40:50.226Z,49.97
2022-08-17T17:46:07.706Z,50.71
2022-08-17T17:51:45.631Z,51.50
2022-08-17T17:57:09.697Z,52.41
2022-08-17T18:02:53.717Z,53.00
2022-08-17T18:08:10.619Z,53.95
2022-08-17T18:13:27.259Z,54.52
2022-08-17T18:18:38.679Z,55.40
2022-08-17T18:23:51.575Z,56.22
2022-08-17T18:28:54.323Z,56.97
2022-08-17T18:34:46.114Z,57.70
2022-08-17T18:39:46.265Z,58.64
2022-08-17T18:44:54.329Z,59.00
2022-08-17T18:50:19.279Z,59.79
2022-08-17T18:55:24.847Z,60.27
2022-08-17T19:00:30.666Z,60.78
2022-08-17T19:06:07.767Z,61.50
2022-08-17T19:11:33.938Z,62.14
2022-08-17T19:16:51.765Z,62.54
2022-08-17T19:21:59.065Z,62.96
2022-08-17T19:27:19.943Z,63.67
2022-08-17T19:32:29.165Z,64.71
2022-08-17T19:38:12.989Z,65.84
2022-08-17T19:43:48.122Z,67.85
2022-08-17T19:48:55.019Z,69.16
2022-08-17T19:54:24.807Z,69.55
2022-08-17T20:00:02.377Z,70.86
2022-08-17T20:05:11.672Z,71.58
2022-08-17T20:10:27.034Z,72.17
2022-08-17T20:15:34.054Z,72.48
2022-08-17T20:21:01.391Z,72.64
2022-08-17T20:26:34.706Z,73.12
2022-08-17T20:31:44.535Z,73.81
2022-08-17T20:37:10.514Z,74.54
2022-08-17T20:42:22.135Z,75.42
2022-08-17T20:47:32.056Z,76.10
2022-08-17T20:52:41.387Z,76.80
2022-08-17T20:57:46.416Z,77.58
2022-08-17T21:03:10.262Z,78.12
2022-08-17T21:08:16.650Z,78.77
2022-08-17T21:13:25.855Z,79.38
2022-08-17T21:18:28.444Z,80.43
2022-08-17T21:23:52.633Z,81.38
2022-08-17T21:29:31.424Z,81.86
2022-08-17T21:34:35.511Z,82.59
2022-08-17T21:39:41.125Z,83.03
2022-08-17T21:44:50.436Z,83.57
2022-08-17T21:49:55.303Z,83.83
2022-08-17T21:55:02.552Z,84.35
2022-08-17T22:00:15.992Z,84.71
2022-08-17T22:05:29.997Z,85.45
2022-08-17T22:10:42.794Z,85.79
2022-08-17T22:16:15.404Z,86.62
2022-08-17T22:21:30.036Z,87.35
2022-08-17T22:26:59.805Z,88.09
2022-08-17T22:32:02.618Z,88.38
2022-08-17T22:37:29.108Z,88.89
2022-08-17T22:42:32.300Z,89.60
2022-08-17T22:47:39.467Z,90.07
2022-08-17T22:53:04.502Z,90.47
2022-08-17T22:58:31.258Z,90.16
2022-08-17T23:03:53.554Z,90.15
2022-08-17T23:08:57.786Z,90.46
2022-08-17T23:14:00.582Z,90.71
2022-08-17T23:19:03.283Z,90.74
2022-08-17T23:24:08.930Z,90.71
2022-08-17T23:29:11.694Z,90.90
2022-08-17T23:34:15.360Z,91.14
2022-08-17T23:39:24.384Z,91.49
2022-08-17T23:44:28.933Z,91.89
2022-08-17T23:49:32.607Z,92.37
2022-08-17T23:54:41.628Z,92.87
2022-08-17T23:59:44.632Z,93.26
